sensor_id;sensor_type;location;lat;lon;timestamp;P1;P2;P0
45112;PMS5003;30873;53.908;27.576;2023-02-03T00:01:17;8.9;7.5;4.5
45112;PMS5003;30873;53.908;27.576;2023-02-03T00:06:43;9.7;7.5;4.6
45112;PMS5003;30873;53.908;27.576;2023-02-03T00:11:53;8.1;6.8;4
45112;PMS5003;30873;53.908;27.576;2023-02-03T00:16:17;8.3;7.1;3.7
45112;PMS5003;30873;53.908;27.576;2023-02-03T00:21:27;8.4;6.4;4.2
45112;PMS5003;30873;53.908;27.576;2023-02-03T00:26:53;8.8;7.2;4.3
45112;PMS5003;30873;53.908;27.576;2023-02-03T00:31:31;8.7;7.1;4.3
45112;PMS5003;30873;53.908;27.576;2023-02-03T00:36:34;7.7;7.1;3.7
45112;PMS5003;30873;53.908;27.576;2023-02-03T00:41:05;7.3;5.8;3.3
45112;PMS5003;30873;53.908;27.576;2023-02-03T00:46:45;7.5;5.5;3.2
45112;PMS5003;30873;53.908;27.576;2023-02-03T00:51:05;7.9;6.1;3.6
45112;PMS5003;30873;53.908;27.576;2023-02-03T00:56:05;7.3;5.4;2.3
45112;PMS5003;30873;53.908;27.576;2023-02-03T01:01:19;6.2;5.3;3.5
45112;PMS5003;30873;53.908;27.576;2023-02-03T01:06:55;6.1;4.8;2.5
45112;PMS5003;30873;53.908;27.576;2023-02-03T01:11:31;6.6;5.6;3
45112;PMS5003;30873;53.908;27.576;2023-02-03T01:16:41;5.6;4.5;2.8
45112;PMS5003;30873;53.908;27.576;2023-02-03T01:21:55;5.2;4.4;2.3
45112;PMS5003;30873;53.908;27.576;2023-02-03T01:26:43;6.2;4.7;1.9
45112;PMS5003;30873;53.908;27.576;2023-02-03T01:31:20;6.2;5;2.3
45112;PMS5003;30873;53.908;27.576;2023-02-03T01:36:55;5.7;4.8;2.2
45112;PMS5003;30873;53.908;27.576;2023-02-03T01:41:06;4.8;4.7;2.3
45112;PMS5003;30873;53.908;27.576;2023-02-03T01:46:32;6.1;4.9;2.4
45112;PMS5003;30873;53.908;27.576;2023-02-03T01:51:57;4.5;4;2
45112;PMS5003;30873;53.908;27.576;2023-02-03T01:56:46;4.2;4.1;2.4
45112;PMS5003;30873;53.908;27.576;2023-02-03T02:01:41;4.7;4.4;3.1
45112;PMS5003;30873;53.908;27.576;2023-02-03T02:06:31;5.2;4.8;3
45112;PMS5003;30873;53.908;27.576;2023-02-03T02:11:57;4.7;4.1;2.2
45112;PMS5003;30873;53.908;27.576;2023-02-03T02:16:58;5.7;4.8;2.7
45112;PMS5003;30873;53.908;27.576;2023-02-03T02:21:51;5;4.2;2.3
45112;PMS5003;30873;53.908;27.576;2023-02-03T02:26:15;6.1;4.6;2.1
45112;PMS5003;30873;53.908;27.576;2023-02-03T02:31:59;5.7;5.3;2.9
45112;PMS5003;30873;53.908;27.576;2023-02-03T02:36:34;3.7;3.5;2
45112;PMS5003;30873;53.908;27.576;2023-02-03T02:41:34;4.4;3.7;2
45112;PMS5003;30873;53.908;27.576;2023-02-03T02:46:58;3.9;3.4;2.2
45112;PMS5003;30873;53.908;27.576;2023-02-03T02:51:41;4.4;3.8;1.7
45112;PMS5003;30873;53.908;27.576;2023-02-03T02:56:33;3.6;2.8;1.3
45112;PMS5003;30873;53.908;27.576;2023-02-03T03:01:19;3.7;3.1;1.4
45112;PMS5003;30873;53.908;27.576;2023-02-03T03:06:56;3.8;3.1;1.8
45112;PMS5003;30873;53.908;27.576;2023-02-03T03:11:15;3.2;2.6;1.8
45112;PMS5003;30873;53.908;27.576;2023-02-03T03:16:44;4.3;2.8;1.1
45112;PMS5003;30873;53.908;27.576;2023-02-03T03:21:16;4.2;3.4;1.6
45112;PMS5003;30873;53.908;27.576;2023-02-03T03:26:29;3.2;2.4;1.3
45112;PMS5003;30873;53.908;27.576;2023-02-03T03:31:05;3.3;2.3;1.4
45112;PMS5003;30873;53.908;27.576;2023-02-03T03:36:57;3;2.7;1.8
45112;PMS5003;30873;53.908;27.576;2023-02-03T03:41:40;3.3;2.8;1.2
45112;PMS5003;30873;53.908;27.576;2023-02-03T03:46:29;2.8;2.6;1.5
45112;PMS5003;30873;53.908;27.576;2023-02-03T03:51:54;2.9;2.3;1.3
45112;PMS5003;30873;53.908;27.576;2023-02-03T03:56:30;2.3;2.3;1.1
45112;PMS5003;30873;53.908;27.576;2023-02-03T04:01:43;3.2;2.6;1.2
45112;PMS5003;30873;53.908;27.576;2023-02-03T04:06:17;2.5;2.2;1
45112;PMS5003;30873;53.908;27.576;2023-02-03T04:11:43;4.4;4;2.2
45112;PMS5003;30873;53.908;27.576;2023-02-03T04:16:19;3.2;2.6;1.2
45112;PMS5003;30873;53.908;27.576;2023-02-03T04:21:41;2.9;1.7;1.1
45112;PMS5003;30873;53.908;27.576;2023-02-03T04:26:17;2.3;2.1;1.2
45112;PMS5003;30873;53.908;27.576;2023-02-03T04:31:41;2.5;2.4;1.2
45112;PMS5003;30873;53.908;27.576;2023-02-03T04:36:41;3.1;2.3;1.5
45112;PMS5003;30873;53.908;27.576;2023-02-03T04:41:53;3.1;2.6;1.4
45112;PMS5003;30873;53.908;27.576;2023-02-03T04:46:53;3.6;3.1;1.7
45112;PMS5003;30873;53.908;27.576;2023-02-03T04:51:06;2.5;2.3;1.2
45112;PMS5003;30873;53.908;27.576;2023-02-03T04:56:55;4.5;3.7;2
45112;PMS5003;30873;53.908;27.576;2023-02-03T05:01:17;3.8;3.5;1.9
45112;PMS5003;30873;53.908;27.576;2023-02-03T05:06:41;4.4;2.8;1.5
45112;PMS5003;30873;53.908;27.576;2023-02-03T05:11:05;3.3;2.9;1.8
45112;PMS5003;30873;53.908;27.576;2023-02-03T05:16:51;3.3;2.5;1.4
45112;PMS5003;30873;53.908;27.576;2023-02-03T05:21:25;6.1;4.8;2.4
45112;PMS5003;30873;53.908;27.576;2023-02-03T05:26:51;5.5;4.4;2.4
45112;PMS5003;30873;53.908;27.576;2023-02-03T05:31:27;6.7;5.1;3.3
45112;PMS5003;30873;53.908;27.576;2023-02-03T05:36:51;4.7;3.9;2.2
45112;PMS5003;30873;53.908;27.576;2023-02-03T05:41:27;5.3;4.8;2.6
45112;PMS5003;30873;53.908;27.576;2023-02-03T05:46:06;6.7;5.4;3.6
45112;PMS5003;30873;53.908;27.576;2023-02-03T05:51:27;6.8;5.4;4
45112;PMS5003;30873;53.908;27.576;2023-02-03T05:56:15;6.8;5.4;3.2
45112;PMS5003;30873;53.908;27.576;2023-02-03T06:01:43;5.7;4.4;2.9
45112;PMS5003;30873;53.908;27.576;2023-02-03T06:06:55;6.8;5;3.3
45112;PMS5003;30873;53.908;27.576;2023-02-03T06:11:29;5.2;4.5;2.5
45112;PMS5003;30873;53.908;27.576;2023-02-03T06:16:29;4.1;3.1;1.9
45112;PMS5003;30873;53.908;27.576;2023-02-03T06:21:55;3.6;3.1;1.7
45112;PMS5003;30873;53.908;27.576;2023-02-03T06:26:29;3;2.6;1.5
45112;PMS5003;30873;53.908;27.576;2023-02-03T06:31:53;3.4;3.3;1.6
45112;PMS5003;30873;53.908;27.576;2023-02-03T06:36:31;5.5;4.5;2.5
45112;PMS5003;30873;53.908;27.576;2023-02-03T06:41:17;4;2.8;1.5
45112;PMS5003;30873;53.908;27.576;2023-02-03T06:46:43;4.8;4.8;2
45112;PMS5003;30873;53.908;27.576;2023-02-03T06:51:05;4.8;3.9;2.4
45112;PMS5003;30873;53.908;27.576;2023-02-03T06:56:17;4.1;3.6;1.6
45112;PMS5003;30873;53.908;27.576;2023-02-03T07:01:55;4.7;3.9;2
45112;PMS5003;30873;53.908;27.576;2023-02-03T07:06:29;4.3;3.5;2
45112;PMS5003;30873;53.908;27.576;2023-02-03T07:11:05;9.4;7.8;4.6
45112;PMS5003;30873;53.908;27.576;2023-02-03T07:16:55;4.9;3.9;2.4
45112;PMS5003;30873;53.908;27.576;2023-02-03T07:21:29;4.3;4;2.4
45112;PMS5003;30873;53.908;27.576;2023-02-03T07:26:17;4.2;3.9;2.2
45112;PMS5003;30873;53.908;27.576;2023-02-03T07:31:31;4.5;4.2;1.8
45112;PMS5003;30873;53.908;27.576;2023-02-03T07:36:06;4.4;3;1.6
45112;PMS5003;30873;53.908;27.576;2023-02-03T07:41:29;4.5;3.6;1.8
45112;PMS5003;30873;53.908;27.576;2023-02-03T07:46:31;6;5.1;2.5
45112;PMS5003;30873;53.908;27.576;2023-02-03T07:51:31;3.6;2.6;1.5
45112;PMS5003;30873;53.908;27.576;2023-02-03T07:56:43;5.3;4.6;2.3
45112;PMS5003;30873;53.908;27.576;2023-02-03T08:01:35;7.4;5.5;3.5
45112;PMS5003;30873;53.908;27.576;2023-02-03T08:06:49;4.6;4.1;2.4
45112;PMS5003;30873;53.908;27.576;2023-02-03T08:11:49;4.3;2.8;1.3
45112;PMS5003;30873;53.908;27.576;2023-02-03T08:16:39;4.2;2.9;1.4
45112;PMS5003;30873;53.908;27.576;2023-02-03T08:21:15;3.8;3.1;1.8
45112;PMS5003;30873;53.908;27.576;2023-02-03T08:26:53;4.5;3.7;1.8
45112;PMS5003;30873;53.908;27.576;2023-02-03T08:31:09;3.8;2.5;1
45112;PMS5003;30873;53.908;27.576;2023-02-03T08:36:31;4.3;3.8;2.5
45112;PMS5003;30873;53.908;27.576;2023-02-03T08:41:53;3.5;2.5;1.5
45112;PMS5003;30873;53.908;27.576;2023-02-03T08:46:15;3.5;2.9;1.6
45112;PMS5003;30873;53.908;27.576;2023-02-03T08:51:17;3.1;1.9;1
45112;PMS5003;30873;53.908;27.576;2023-02-03T08:56:15;3.2;1.8;1.5
45112;PMS5003;30873;53.908;27.576;2023-02-03T09:01:53;4.5;4;2.6
45112;PMS5003;30873;53.908;27.576;2023-02-03T09:06:17;5.2;4.2;2.3
45112;PMS5003;30873;53.908;27.576;2023-02-03T09:11:40;3.5;2.7;1.1
45112;PMS5003;30873;53.908;27.576;2023-02-03T09:16:06;2.7;2.3;1.3
45112;PMS5003;30873;53.908;27.576;2023-02-03T09:21:39;1.6;1.1;0.6
45112;PMS5003;30873;53.908;27.576;2023-02-03T09:26:39;2.5;1.8;0.8
45112;PMS5003;30873;53.908;27.576;2023-02-03T09:31:53;4;3.2;2.3
45112;PMS5003;30873;53.908;27.576;2023-02-03T09:36:41;6.2;5.1;3
45112;PMS5003;30873;53.908;27.576;2023-02-03T09:41:45;6.2;5.1;3.3
45112;PMS5003;30873;53.908;27.576;2023-02-03T09:46:56;7.3;6.7;4.5
45112;PMS5003;30873;53.908;27.576;2023-02-03T09:51:31;7.7;6.9;4.3
45112;PMS5003;30873;53.908;27.576;2023-02-03T09:56:30;4.7;4.2;2.7
45112;PMS5003;30873;53.908;27.576;2023-02-03T10:01:17;5.3;4.5;3.3
45112;PMS5003;30873;53.908;27.576;2023-02-03T10:06:44;7.1;6;4.6
45112;PMS5003;30873;53.908;27.576;2023-02-03T10:11:36;4.2;3.9;2.7
45112;PMS5003;30873;53.908;27.576;2023-02-03T10:16:20;4.9;4.2;3.2
45112;PMS5003;30873;53.908;27.576;2023-02-03T10:21:10;6.4;4.9;3.4
45112;PMS5003;30873;53.908;27.576;2023-02-03T10:26:53;5;4.6;2.8
45112;PMS5003;30873;53.908;27.576;2023-02-03T10:31:41;6.8;5.8;4
45112;PMS5003;30873;53.908;27.576;2023-02-03T10:36:45;27;23.4;14.9
45112;PMS5003;30873;53.908;27.576;2023-02-03T10:41:57;31.8;27.7;18.2
45112;PMS5003;30873;53.908;27.576;2023-02-03T10:46:34;5.5;5;3.1
45112;PMS5003;30873;53.908;27.576;2023-02-03T10:51:47;4.8;4.3;3
45112;PMS5003;30873;53.908;27.576;2023-02-03T10:56:19;4.4;4;2.8
45112;PMS5003;30873;53.908;27.576;2023-02-03T11:01:55;6.1;5.1;3.5
45112;PMS5003;30873;53.908;27.576;2023-02-03T11:06:52;3.8;3.3;2.3
45112;PMS5003;30873;53.908;27.576;2023-02-03T11:11:33;3.9;3.5;2.6
45112;PMS5003;30873;53.908;27.576;2023-02-03T11:16:32;3.6;2.6;1.5
45112;PMS5003;30873;53.908;27.576;2023-02-03T11:21:44;6.2;5.6;3.8
45112;PMS5003;30873;53.908;27.576;2023-02-03T11:26:40;5.9;5.4;3.1
45112;PMS5003;30873;53.908;27.576;2023-02-03T11:31:56;7.9;6.5;4
45112;PMS5003;30873;53.908;27.576;2023-02-03T11:36:55;4.5;3.6;1.9
45112;PMS5003;30873;53.908;27.576;2023-02-03T11:41:18;6;5.4;4.1
45112;PMS5003;30873;53.908;27.576;2023-02-03T11:46:46;5;4.8;2.2
45112;PMS5003;30873;53.908;27.576;2023-02-03T11:51:30;6.1;5.3;3.5
45112;PMS5003;30873;53.908;27.576;2023-02-03T11:56:57;6.2;5.5;4.4
45112;PMS5003;30873;53.908;27.576;2023-02-03T12:01:07;3.1;2.9;2
45112;PMS5003;30873;53.908;27.576;2023-02-03T12:06:59;5.1;5;2.2
45112;PMS5003;30873;53.908;27.576;2023-02-03T12:11:36;3.8;3.3;2
45112;PMS5003;30873;53.908;27.576;2023-02-03T12:17:00;5;4.4;2.4
45112;PMS5003;30873;53.908;27.576;2023-02-03T12:21:34;15.5;13.6;11.2
45112;PMS5003;30873;53.908;27.576;2023-02-03T12:26:56;11.3;10.7;8.4
45112;PMS5003;30873;53.908;27.576;2023-02-03T12:31:36;4.8;3.8;3
45112;PMS5003;30873;53.908;27.576;2023-02-03T12:36:23;7.1;6.5;4
45112;PMS5003;30873;53.908;27.576;2023-02-03T12:41:07;6.2;4.7;2.9
45112;PMS5003;30873;53.908;27.576;2023-02-03T12:46:08;8;6.8;4.3
45112;PMS5003;30873;53.908;27.576;2023-02-03T12:51:47;6.4;5.5;3.7
45112;PMS5003;30873;53.908;27.576;2023-02-03T12:56:59;8.8;7.3;4.5
45112;PMS5003;30873;53.908;27.576;2023-02-03T13:01:34;7.7;7.4;4.6
45112;PMS5003;30873;53.908;27.576;2023-02-03T13:06:31;8.8;8.2;4.8
45112;PMS5003;30873;53.908;27.576;2023-02-03T13:11:57;10.2;8.7;5.3
45112;PMS5003;30873;53.908;27.576;2023-02-03T13:16:06;8.6;7.5;4.5
45112;PMS5003;30873;53.908;27.576;2023-02-03T13:21:31;9.3;7.9;5.3
45112;PMS5003;30873;53.908;27.576;2023-02-03T13:26:38;9.2;7.7;5.1
45112;PMS5003;30873;53.908;27.576;2023-02-03T13:31:08;6.7;6;3.9
45112;PMS5003;30873;53.908;27.576;2023-02-03T13:36:33;9.6;8.7;6
45112;PMS5003;30873;53.908;27.576;2023-02-03T13:41:21;11;9.1;5.8
45112;PMS5003;30873;53.908;27.576;2023-02-03T13:46:33;6.9;6.2;4.5
45112;PMS5003;30873;53.908;27.576;2023-02-03T13:51:55;6.1;5.4;3.2
45112;PMS5003;30873;53.908;27.576;2023-02-03T13:56:18;5.3;4;2.7
45112;PMS5003;30873;53.908;27.576;2023-02-03T14:01:42;3.3;2.8;1.7
45112;PMS5003;30873;53.908;27.576;2023-02-03T14:06:57;3.6;2.9;1.7
45112;PMS5003;30873;53.908;27.576;2023-02-03T14:11:49;6.3;5.6;3.7
45112;PMS5003;30873;53.908;27.576;2023-02-03T14:16:21;4.4;3.8;2
45112;PMS5003;30873;53.908;27.576;2023-02-03T14:21:36;10;8.9;6
45112;PMS5003;30873;53.908;27.576;2023-02-03T14:26:21;4.1;3.7;2.1
45112;PMS5003;30873;53.908;27.576;2023-02-03T14:31:31;4.9;4.3;2.1
45112;PMS5003;30873;53.908;27.576;2023-02-03T14:36:24;7;5.3;3.3
45112;PMS5003;30873;53.908;27.576;2023-02-03T14:41:05;9.9;8.5;5.5
45112;PMS5003;30873;53.908;27.576;2023-02-03T14:46:57;7.7;6;3.6
45112;PMS5003;30873;53.908;27.576;2023-02-03T14:51:36;6.2;5.3;2.9
45112;PMS5003;30873;53.908;27.576;2023-02-03T14:57:01;6;4.4;2.4
45112;PMS5003;30873;53.908;27.576;2023-02-03T15:02:09;5.8;5;3.1
45112;PMS5003;30873;53.908;27.576;2023-02-03T15:06:42;3.1;3.1;1.7
45112;PMS5003;30873;53.908;27.576;2023-02-03T15:11:24;5.1;3.6;1.7
45112;PMS5003;30873;53.908;27.576;2023-02-03T15:16:54;5.1;4;2.2
45112;PMS5003;30873;53.908;27.576;2023-02-03T15:21:18;6.1;5.1;3.1
45112;PMS5003;30873;53.908;27.576;2023-02-03T15:26:29;8.1;6.4;4
45112;PMS5003;30873;53.908;27.576;2023-02-03T15:31:53;7.3;5.9;3.6
45112;PMS5003;30873;53.908;27.576;2023-02-03T15:36:40;5;4.8;2.4
45112;PMS5003;30873;53.908;27.576;2023-02-03T15:41:39;5;4.4;2.5
45112;PMS5003;30873;53.908;27.576;2023-02-03T15:46:06;4.7;4.1;2.3
45112;PMS5003;30873;53.908;27.576;2023-02-03T15:51:52;4.6;3.9;2.3
45112;PMS5003;30873;53.908;27.576;2023-02-03T15:56:17;5.5;4.5;2.2
45112;PMS5003;30873;53.908;27.576;2023-02-03T16:01:41;4.7;3.9;2
45112;PMS5003;30873;53.908;27.576;2023-02-03T16:06:07;5.9;5.6;3.4
45112;PMS5003;30873;53.908;27.576;2023-02-03T16:11:29;4.5;3.5;1.7
45112;PMS5003;30873;53.908;27.576;2023-02-03T16:16:06;6.5;5.4;3.8
45112;PMS5003;30873;53.908;27.576;2023-02-03T16:21:56;6;5.4;3.1
45112;PMS5003;30873;53.908;27.576;2023-02-03T16:26:41;5.4;4.6;2.6
45112;PMS5003;30873;53.908;27.576;2023-02-03T16:31:43;6.6;5.7;3.9
45112;PMS5003;30873;53.908;27.576;2023-02-03T16:36:53;6.7;5.5;2.7
45112;PMS5003;30873;53.908;27.576;2023-02-03T16:41:32;4.7;3.6;2
45112;PMS5003;30873;53.908;27.576;2023-02-03T16:46:43;3.3;2.5;1.1
45112;PMS5003;30873;53.908;27.576;2023-02-03T16:51:36;3.8;3.1;1.8
45112;PMS5003;30873;53.908;27.576;2023-02-03T16:56:43;2.7;2.3;1.3
45112;PMS5003;30873;53.908;27.576;2023-02-03T17:01:15;3;2.6;1.4
45112;PMS5003;30873;53.908;27.576;2023-02-03T17:06:41;5.1;4.7;2.1
45112;PMS5003;30873;53.908;27.576;2023-02-03T17:11:39;6.3;5.2;3.2
45112;PMS5003;30873;53.908;27.576;2023-02-03T17:16:43;6.9;5.9;3.3
45112;PMS5003;30873;53.908;27.576;2023-02-03T17:21:39;7.1;6;3.4
45112;PMS5003;30873;53.908;27.576;2023-02-03T17:26:55;6.3;5.5;2.4
45112;PMS5003;30873;53.908;27.576;2023-02-03T17:31:55;6.2;4.5;2.5
45112;PMS5003;30873;53.908;27.576;2023-02-03T17:36:06;5.8;5;2.6
45112;PMS5003;30873;53.908;27.576;2023-02-03T17:41:53;6.5;5.5;3.3
45112;PMS5003;30873;53.908;27.576;2023-02-03T17:46:20;7.4;5.6;3.7
45112;PMS5003;30873;53.908;27.576;2023-02-03T17:51:41;6.1;4.6;1.9
45112;PMS5003;30873;53.908;27.576;2023-02-03T17:56:06;7.4;5.8;3.1
45112;PMS5003;30873;53.908;27.576;2023-02-03T18:01:41;5.2;4.1;2.3
45112;PMS5003;30873;53.908;27.576;2023-02-03T18:06:28;5.2;4.2;1.7
45112;PMS5003;30873;53.908;27.576;2023-02-03T18:11:43;5.8;4.6;2.4
45112;PMS5003;30873;53.908;27.576;2023-02-03T18:16:41;5.1;4.1;1.9
45112;PMS5003;30873;53.908;27.576;2023-02-03T18:21:55;4.6;3.3;1.6
45112;PMS5003;30873;53.908;27.576;2023-02-03T18:26:55;4.9;4.1;2.2
45112;PMS5003;30873;53.908;27.576;2023-02-03T18:31:17;10.4;8.2;5.3
45112;PMS5003;30873;53.908;27.576;2023-02-03T18:36:55;5.6;4.9;2.8
45112;PMS5003;30873;53.908;27.576;2023-02-03T18:41:18;5.7;5.2;3.3
45112;PMS5003;30873;53.908;27.576;2023-02-03T18:46:43;6.2;5;3.1
45112;PMS5003;30873;53.908;27.576;2023-02-03T18:51:19;6.8;5.3;3.6
45112;PMS5003;30873;53.908;27.576;2023-02-03T18:56:55;7.6;6.2;3.8
45112;PMS5003;30873;53.908;27.576;2023-02-03T19:01:19;7.9;6.8;4.3
45112;PMS5003;30873;53.908;27.576;2023-02-03T19:06:41;7.8;7;4.4
45112;PMS5003;30873;53.908;27.576;2023-02-03T19:11:41;9.1;7.4;4.6
45112;PMS5003;30873;53.908;27.576;2023-02-03T19:16:55;8.4;6.7;4.2
45112;PMS5003;30873;53.908;27.576;2023-02-03T19:21:31;7.5;6.2;3.9
45112;PMS5003;30873;53.908;27.576;2023-02-03T19:26:27;6.9;6.1;3.5
45112;PMS5003;30873;53.908;27.576;2023-02-03T19:31:30;6.3;5.6;3.4
45112;PMS5003;30873;53.908;27.576;2023-02-03T19:36:42;6.4;5.4;2.7
45112;PMS5003;30873;53.908;27.576;2023-02-03T19:41:43;6.1;5;3.1
45112;PMS5003;30873;53.908;27.576;2023-02-03T19:46:53;5.5;4.6;2.5
45112;PMS5003;30873;53.908;27.576;2023-02-03T19:51:05;7.1;5.7;3.3
45112;PMS5003;30873;53.908;27.576;2023-02-03T19:56:40;6.7;6;3.2
45112;PMS5003;30873;53.908;27.576;2023-02-03T20:01:55;9.4;8.4;5
45112;PMS5003;30873;53.908;27.576;2023-02-03T20:06:31;7.7;6.8;3.9
45112;PMS5003;30873;53.908;27.576;2023-02-03T20:11:05;9.7;7.6;4.7
45112;PMS5003;30873;53.908;27.576;2023-02-03T20:16:43;8.1;7.6;4.4
45112;PMS5003;30873;53.908;27.576;2023-02-03T20:21:05;10.4;8.5;4.9
45112;PMS5003;30873;53.908;27.576;2023-02-03T20:26:06;10.1;9.1;5.2
45112;PMS5003;30873;53.908;27.576;2023-02-03T20:31:17;7.7;7.1;4.4
45112;PMS5003;30873;53.908;27.576;2023-02-03T20:36:34;10.7;8.5;4.9
45112;PMS5003;30873;53.908;27.576;2023-02-03T20:41:57;9.2;7.7;4.4
45112;PMS5003;30873;53.908;27.576;2023-02-03T20:46:08;9.5;7.9;4.9
45112;PMS5003;30873;53.908;27.576;2023-02-03T20:51:55;10.3;8.6;5
45112;PMS5003;30873;53.908;27.576;2023-02-03T20:56:55;11.8;10.3;5.5
45112;PMS5003;30873;53.908;27.576;2023-02-03T21:01:31;9.6;8.1;4.5
45112;PMS5003;30873;53.908;27.576;2023-02-03T21:06:10;10;7.9;5.1
45112;PMS5003;30873;53.908;27.576;2023-02-03T21:11:55;10.1;8.4;5.5
45112;PMS5003;30873;53.908;27.576;2023-02-03T21:16:10;11;9.8;5.8
45112;PMS5003;30873;53.908;27.576;2023-02-03T21:21:43;10.3;8.9;5.2
45112;PMS5003;30873;53.908;27.576;2023-02-03T21:26:56;10.3;8.6;5
45112;PMS5003;30873;53.908;27.576;2023-02-03T21:31:41;10.7;9.8;5.6
45112;PMS5003;30873;53.908;27.576;2023-02-03T21:36:43;12.9;11.1;7.2
45112;PMS5003;30873;53.908;27.576;2023-02-03T21:41:22;13.9;11.4;7.3
45112;PMS5003;30873;53.908;27.576;2023-02-03T21:46:58;12.9;10.4;5.9
45112;PMS5003;30873;53.908;27.576;2023-02-03T21:51:57;13.2;10.7;6.2
45112;PMS5003;30873;53.908;27.576;2023-02-03T21:56:43;11.8;10;5.9
45112;PMS5003;30873;53.908;27.576;2023-02-03T22:01:19;12.6;10.7;7
45112;PMS5003;30873;53.908;27.576;2023-02-03T22:06:57;12.1;9.5;5.9
45112;PMS5003;30873;53.908;27.576;2023-02-03T22:11:33;12.2;10.7;6.4
45112;PMS5003;30873;53.908;27.576;2023-02-03T22:16:19;13;10.6;6.9
45112;PMS5003;30873;53.908;27.576;2023-02-03T22:21:55;12.7;11.5;6.8
45112;PMS5003;30873;53.908;27.576;2023-02-03T22:26:43;14.1;11.4;7
45112;PMS5003;30873;53.908;27.576;2023-02-03T22:31:43;15.7;14.2;8.5
45112;PMS5003;30873;53.908;27.576;2023-02-03T22:36:19;16;12.9;7.6
45112;PMS5003;30873;53.908;27.576;2023-02-03T22:41:57;14.6;13;7.9
45112;PMS5003;30873;53.908;27.576;2023-02-03T22:46:06;14.6;12.4;7.4
45112;PMS5003;30873;53.908;27.576;2023-02-03T22:51:41;16.9;14.4;8.6
45112;PMS5003;30873;53.908;27.576;2023-02-03T22:56:19;18.5;14.6;8.4
45112;PMS5003;30873;53.908;27.576;2023-02-03T23:01:43;17.2;14.3;8.7
45112;PMS5003;30873;53.908;27.576;2023-02-03T23:06:31;16.4;13.2;9.2
45112;PMS5003;30873;53.908;27.576;2023-02-03T23:11:55;14.9;13.2;7.7
45112;PMS5003;30873;53.908;27.576;2023-02-03T23:16:44;14.5;12.5;7.5
45112;PMS5003;30873;53.908;27.576;2023-02-03T23:21:31;12.1;10.6;7.2
45112;PMS5003;30873;53.908;27.576;2023-02-03T23:26:57;14;12;7.1
45112;PMS5003;30873;53.908;27.576;2023-02-03T23:31:34;12.4;10.5;6.8
45112;PMS5003;30873;53.908;27.576;2023-02-03T23:36:27;10.3;8.6;5.1
45112;PMS5003;30873;53.908;27.576;2023-02-03T23:41:43;10.5;7.9;4.5
45112;PMS5003;30873;53.908;27.576;2023-02-03T23:46:45;11.2;10.3;5.9
45112;PMS5003;30873;53.908;27.576;2023-02-03T23:51:05;14.8;12.1;7.7
45112;PMS5003;30873;53.908;27.576;2023-02-03T23:56:57;14.1;11.7;6.5
